Time;durP1;ratioP1;P1;durP2;ratioP2;P2;SDS_P1;SDS_P2;PMS_P1;PMS_P2;Temp;Humidity;BMP_temperature;BMP_pressure;BME280_temperature;BME280_humidity;BME280_pressure;Samples;Min_cycle;Max_cycle;Signal;HPM_P1;HPM_P2
2022/10/20 00:01:24;;;;;;;10.82;5.05;;;18.60;92.30;;;18.66;58.96;99717.03;5045360;28;20043;-77
2022/10/20 00:03:50;;;;;;;9.50;5.32;;;18.60;92.30;;;18.64;58.87;99727.53;5062033;28;20487;-77
2022/10/20 00:06:24;;;;;;;10.35;4.88;;;18.50;92.30;;;18.65;59.42;99731.91;5046895;28;20044;-77
2022/10/20 00:08:51;;;;;;;8.52;5.00;;;18.60;92.60;;;18.65;59.60;99743.72;5050242;28;20044;-78
2022/10/20 00:11:18;;;;;;;10.43;4.85;;;18.60;92.50;;;18.62;59.63;99743.50;5033266;28;20032;-77
2022/10/20 00:13:46;;;;;;;7.85;4.72;;;18.50;92.50;;;18.65;59.05;99749.22;5054398;28;20040;-77
2022/10/20 00:16:12;;;;;;;6.88;3.88;;;18.50;92.40;;;18.62;59.02;99740.75;5045500;28;20051;-77
2022/10/20 00:18:38;;;;;;;9.63;5.05;;;18.60;92.30;;;18.65;58.98;99746.47;5048822;28;20043;-77
2022/10/20 00:21:06;;;;;;;6.03;4.53;;;18.50;92.30;;;18.63;59.13;99739.63;5044406;28;20127;-77
2022/10/20 00:23:32;;;;;;;7.07;4.28;;;18.50;92.40;;;18.63;59.35;99739.63;5045845;28;20051;-77
2022/10/20 00:26:09;;;;;;;9.43;5.07;;;18.50;92.50;;;18.67;59.36;99746.13;5049534;28;20036;-77
2022/10/20 00:28:38;;;;;;;9.55;4.80;;;18.50;92.50;;;18.59;59.12;99739.41;5063853;28;20036;-77
2022/10/20 00:31:04;;;;;;;6.70;4.53;;;18.50;92.40;;;18.58;59.19;99737.00;5062707;28;20066;-77
2022/10/20 00:33:31;;;;;;;9.85;5.22;;;18.50;92.40;;;18.55;59.05;99737.59;5049332;28;20040;-77
2022/10/20 00:36:01;;;;;;;6.68;4.28;;;18.40;92.30;;;18.56;59.15;99739.22;5041146;28;20097;-77
2022/10/20 00:38:27;;;;;;;9.75;4.70;;;18.50;92.40;;;18.53;59.72;99739.84;5032746;28;20542;-76
2022/10/20 00:40:54;;;;;;;5.13;3.72;;;18.50;92.60;;;18.56;59.68;99744.72;5039539;28;20491;-77
2022/10/20 00:43:20;;;;;;;7.18;5.03;;;18.50;92.60;;;18.50;59.78;99746.75;5039624;28;20047;-77
2022/10/20 00:45:51;;;;;;;7.60;5.35;;;18.40;92.50;;;18.55;59.23;99734.84;5048807;28;20056;-77
2022/10/20 00:48:24;;;;;;;6.45;4.65;;;18.40;92.40;;;18.57;59.03;99730.69;5064323;28;20119;-77
2022/10/20 00:50:53;;;;;;;8.30;4.45;;;18.50;92.40;;;18.54;59.09;99730.47;5050860;28;20038;-77
2022/10/20 00:53:22;;;;;;;6.75;4.40;;;18.50;92.30;;;18.53;59.30;99729.66;5051523;28;20479;-77
2022/10/20 00:55:50;;;;;;;6.88;4.57;;;18.50;92.40;;;18.53;59.44;99734.34;5043530;28;20399;-77
2022/10/20 00:58:15;;;;;;;7.88;4.75;;;18.40;92.50;;;18.52;59.47;99729.94;5043804;28;20131;-77
2022/10/20 01:00:42;;;;;;;7.97;4.72;;;18.40;92.50;;;18.53;59.31;99728.84;5035432;28;20040;-77
2022/10/20 01:03:14;;;;;;;8.48;5.07;;;18.50;92.40;;;18.52;59.04;99730.78;5034221;28;20059;-77
2022/10/20 01:05:40;;;;;;;7.70;4.35;;;18.40;92.40;;;18.52;58.99;99728.03;5043564;28;20048;-77
2022/10/20 01:08:06;;;;;;;7.13;4.25;;;18.40;92.30;;;18.50;59.09;99730.28;5044520;28;20048;-77
2022/10/20 01:10:39;;;;;;;7.38;4.50;;;18.40;92.30;;;18.49;59.49;99727.81;5041543;28;20479;-77
2022/10/20 01:13:24;;;;;;;6.88;4.68;;;18.40;92.50;;;18.49;59.47;99727.81;5035926;28;20537;-77
2022/10/20 01:15:59;;;;;;;9.00;5.00;;;18.30;92.50;;;18.46;59.44;99725.69;5071898;28;20078;-77
2022/10/20 01:18:57;;;;;;;8.23;4.75;;;18.30;92.40;;;18.46;59.37;99718.25;5072477;28;20059;-77
2022/10/20 01:21:48;;;;;;;5.95;3.60;;;18.40;92.40;;;18.48;59.06;99720.69;5039178;28;20065;-77
2022/10/20 01:24:31;;;;;;;8.05;4.55;;;18.40;92.30;;;18.47;59.13;99724.53;5064962;28;20045;-77
2022/10/20 01:27:29;;;;;;;9.90;5.05;;;18.40;92.40;;;18.46;59.62;99728.44;5069134;28;20055;-77
2022/10/20 01:30:20;;;;;;;7.32;4.47;;;18.30;92.50;;;18.48;59.56;99731.69;5060673;28;20048;-77
2022/10/20 01:33:41;;;;;;;6.57;4.00;;;18.40;92.60;;;18.49;58.97;99733.31;5047813;28;20040;-77
2022/10/20 01:36:24;;;;;;;6.78;4.65;;;18.30;92.40;;;18.47;59.26;99732.78;5070524;28;20290;-77
2022/10/20 01:39:14;;;;;;;4.70;3.28;;;18.30;92.40;;;18.43;58.82;99730.66;5059674;28;20044;-77
2022/10/20 01:41:45;;;;;;;6.65;3.75;;;18.30;92.30;;;18.39;59.38;99729.66;5061723;28;20036;-77
2022/10/20 01:44:13;;;;;;;7.88;4.65;;;18.30;92.40;;;18.42;59.79;99733.72;5053785;28;20044;-77
2022/10/20 01:46:39;;;;;;;8.25;3.83;;;18.30;92.60;;;18.40;59.81;99731.28;5068387;28;20433;-77
2022/10/20 01:49:05;;;;;;;6.45;4.20;;;18.30;92.60;;;18.39;59.31;99732.41;5075355;28;20060;-77
2022/10/20 01:51:32;;;;;;;7.53;4.05;;;18.30;92.40;;;18.41;59.13;99730.13;5074150;28;20115;-77
2022/10/20 01:53:58;;;;;;;6.43;3.75;;;18.30;92.40;;;18.38;59.21;99736.25;5073619;28;20122;-76
2022/10/20 01:56:49;;;;;;;7.05;3.78;;;18.20;92.70;;;18.39;59.16;99732.41;5082303;28;20384;-77
2022/10/20 01:59:35;;;;;;;8.00;4.07;;;18.30;92.40;;;18.35;59.77;99733.31;5054485;28;20036;-76
2022/10/20 02:02:09;;;;;;;10.77;4.20;;;18.30;92.60;;;18.39;59.70;99726.06;5084106;28;20582;-76
2022/10/20 02:05:11;;;;;;;5.90;3.45;;;18.30;92.50;;;18.36;59.42;99723.94;5071728;28;20040;-77
2022/10/20 02:07:37;;;;;;;6.70;4.20;;;18.20;92.40;;;18.39;59.32;99728.81;5078357;28;20036;-76
2022/10/20 02:10:28;;;;;;;7.78;3.95;;;18.20;92.40;;;18.39;59.01;99734.31;5066326;28;20058;-77
2022/10/20 02:12:58;;;;;;;6.70;3.92;;;18.20;92.40;;;18.39;58.98;99735.16;5072620;28;20032;-76
2022/10/20 02:15:25;;;;;;;9.00;5.30;;;18.20;92.40;;;18.38;59.01;99733.50;5060233;28;20050;-76
2022/10/20 02:18:04;;;;;;;7.10;4.03;;;18.20;92.40;;;18.36;59.56;99722.00;5072010;28;20051;-76
2022/10/20 02:20:30;;;;;;;6.75;3.95;;;18.20;92.60;;;18.38;59.48;99719.75;5066896;28;20383;-76
2022/10/20 02:22:57;;;;;;;6.20;3.53;;;18.20;92.40;;;18.36;58.93;99727.50;5055033;28;20040;-76
2022/10/20 02:25:24;;;;;;;8.07;4.13;;;18.20;92.40;;;18.39;59.17;99735.16;5067829;28;20036;-76
2022/10/20 02:27:50;;;;;;;7.00;3.60;;;18.20;92.40;;;18.37;58.90;99729.13;5067816;28;20069;-76
2022/10/20 02:30:17;;;;;;;5.95;3.67;;;18.20;92.40;;;18.36;59.10;99729.41;5054394;28;20044;-76
2022/10/20 02:32:48;;;;;;;4.38;3.47;;;18.20;92.50;;;18.37;58.70;99725.56;5070993;28;20147;-76
2022/10/20 02:35:17;;;;;;;6.22;3.88;;;18.20;92.50;;;18.36;59.49;99729.41;5058109;28;20063;-76
2022/10/20 02:37:44;;;;;;;7.20;3.80;;;18.20;92.60;;;18.34;59.24;99731.66;5053998;28;20040;-77
2022/10/20 02:40:10;;;;;;;4.60;3.55;;;18.10;92.40;;;18.34;58.98;99728.91;5068213;28;20054;-76
2022/10/20 02:42:39;;;;;;;5.97;3.53;;;18.20;92.40;;;18.31;59.07;99722.09;5088607;28;20036;-76
2022/10/20 02:45:06;;;;;;;5.38;3.58;;;18.10;92.40;;;18.35;59.01;99728.63;5076304;28;20047;-76
2022/10/20 02:47:32;;;;;;;6.82;4.40;;;18.10;92.40;;;18.37;59.43;99729.13;5087285;28;20044;-76
2022/10/20 02:50:00;;;;;;;5.47;3.35;;;18.20;92.60;;;18.33;59.42;99721.78;5082426;28;20407;-76
2022/10/20 02:52:26;;;;;;;8.05;3.85;;;18.20;92.70;;;18.25;59.58;99717.81;5073210;27;20055;-76
2022/10/20 02:54:53;;;;;;;4.85;3.40;;;18.20;92.50;;;18.30;59.47;99720.47;5051654;28;20043;-76
2022/10/20 02:57:18;;;;;;;5.13;3.65;;;18.10;92.40;;;18.33;58.91;99728.09;5070355;28;20054;-76
2022/10/20 02:59:45;;;;;;;4.80;3.30;;;18.10;92.40;;;18.30;59.15;99723.22;5078702;27;20124;-77
2022/10/20 03:02:10;;;;;;;5.40;2.95;;;18.10;92.40;;;18.32;59.16;99733.88;5087584;27;20043;-77
2022/10/20 03:04:37;;;;;;;6.05;4.35;;;18.10;92.50;;;18.39;59.41;99734.31;5055235;27;20058;-76
2022/10/20 03:07:03;;;;;;;8.35;3.72;;;18.20;92.60;;;18.34;59.38;99739.88;5072010;27;20475;-77
2022/10/20 03:09:29;;;;;;;4.40;3.08;;;18.20;92.60;;;18.31;59.21;99744.06;5077766;28;20036;-77
2022/10/20 03:11:55;;;;;;;4.15;3.50;;;18.20;92.40;;;18.31;59.25;99746.00;5055171;27;20043;-77
2022/10/20 03:14:21;;;;;;;6.97;3.28;;;18.20;92.40;;;18.38;58.98;99757.41;5078210;28;20047;-77
2022/10/20 03:16:47;;;;;;;6.97;3.28;;;18.20;92.40;;;18.38;58.75;99757.41;5090367;27;20040;-77
2022/10/20 03:19:13;;;;;;;8.50;3.78;;;18.20;92.30;;;18.39;59.05;99757.13;5073893;27;20061;-77
2022/10/20 03:21:39;;;;;;;6.03;3.70;;;18.20;92.60;;;18.41;59.32;99760.34;5067084;28;20048;-77
2022/10/20 03:24:05;;;;;;;4.20;2.80;;;18.20;92.70;;;18.40;59.18;99763.41;5086796;27;20075;-77
2022/10/20 03:26:31;;;;;;;6.75;3.28;;;18.20;92.60;;;18.47;58.74;99768.50;5085165;27;20402;-77
2022/10/20 03:28:58;;;;;;;3.80;3.38;;;18.20;92.40;;;18.43;59.24;99769.13;5085293;28;20120;-77
2022/10/20 03:31:24;;;;;;;6.40;3.40;;;18.20;92.40;;;18.46;58.69;99775.13;5052744;28;20094;-77
2022/10/20 03:33:50;;;;;;;6.22;3.30;;;18.20;92.40;;;18.49;58.61;99772.56;5076013;28;20036;-77
2022/10/20 03:36:16;;;;;;;4.75;3.30;;;18.20;92.50;;;18.54;58.93;99771.69;5090755;27;20074;-77
2022/10/20 03:38:42;;;;;;;5.18;3.60;;;18.20;92.60;;;18.49;59.18;99777.25;5071870;28;20040;-77
2022/10/20 03:41:09;;;;;;;5.72;3.38;;;18.20;92.60;;;18.48;58.83;99765.47;5090254;28;20134;-77
2022/10/20 03:43:35;;;;;;;6.68;4.25;;;18.30;92.50;;;18.58;58.46;99770.78;5076321;28;20483;-77
2022/10/20 03:46:03;;;;;;;7.68;3.92;;;18.30;92.40;;;18.60;58.45;99774.03;5087686;28;20097;-77
2022/10/20 03:48:29;;;;;;;9.40;4.88;;;18.30;92.40;;;18.57;58.29;99773.81;5077825;28;20053;-77
2022/10/20 03:50:55;;;;;;;6.28;4.18;;;18.30;92.40;;;18.55;58.78;99776.06;5052533;28;20383;-77
2022/10/20 03:53:21;;;;;;;7.85;4.60;;;18.30;92.50;;;18.58;58.11;99776.28;5077170;28;20040;-77
2022/10/20 03:55:47;;;;;;;6.25;3.97;;;18.30;92.10;;;18.57;58.01;99774.66;5089873;28;20102;-77
2022/10/20 03:58:13;;;;;;;7.35;4.60;;;18.30;92.20;;;18.59;57.70;99772.38;5083067;28;20176;-77
2022/10/20 04:00:39;;;;;;;9.20;4.40;;;18.30;92.10;;;18.56;57.47;99772.19;5050476;28;20107;-77
2022/10/20 04:03:06;;;;;;;6.60;4.47;;;18.30;91.90;;;18.60;58.11;99784.22;5072803;28;20032;-77
2022/10/20 04:05:32;;;;;;;7.88;4.78;;;18.30;92.20;;;18.66;57.88;99778.31;5085903;28;20115;-77
2022/10/20 04:07:58;;;;;;;8.90;5.43;;;18.40;92.30;;;18.65;58.02;99782.19;5087243;28;20039;-77
2022/10/20 04:10:24;;;;;;;8.00;5.82;;;18.30;92.60;;;18.69;57.37;99781.56;5090842;28;20115;-77
2022/10/20 04:12:50;;;;;;;6.85;4.43;;;18.40;92.10;;;18.62;57.33;99777.31;5070106;28;20038;-77
2022/10/20 04:15:19;;;;;;;7.03;3.25;;;18.40;92.00;;;18.64;57.17;99774.22;5091841;27;20031;-77
2022/10/20 04:17:46;;;;;;;6.22;3.70;;;18.40;91.80;;;18.73;57.06;99777.91;5058560;28;20497;-78
2022/10/20 04:20:12;;;;;;;9.32;4.88;;;18.40;92.00;;;18.73;57.26;99775.16;5066785;28;20046;-77
2022/10/20 04:22:39;;;;;;;9.65;4.55;;;18.40;92.10;;;18.80;57.54;99774.78;5074400;28;20036;-77
2022/10/20 04:25:05;;;;;;;9.32;5.18;;;18.50;92.30;;;18.75;57.43;99775.72;5085993;28;20039;-77
2022/10/20 04:27:32;;;;;;;9.02;4.60;;;18.50;92.10;;;18.75;57.52;99775.72;5072877;28;20039;-77
2022/10/20 04:29:57;;;;;;;6.80;4.45;;;18.50;92.00;;;18.79;56.99;99776.72;5061794;28;20069;-77
2022/10/20 04:32:24;;;;;;;9.77;4.70;;;18.50;91.90;;;18.78;56.92;99775.09;5085516;28;20398;-77
2022/10/20 04:34:50;;;;;;;8.00;4.55;;;18.50;91.90;;;18.75;57.18;99783.09;5070773;28;20035;-77
2022/10/20 04:37:16;;;;;;;9.02;4.55;;;18.40;92.00;;;18.78;57.37;99786.09;5053001;28;20535;-77
2022/10/20 04:39:42;;;;;;;8.10;5.10;;;18.50;92.20;;;18.86;57.42;99774.38;5058286;28;20047;-77
2022/10/20 04:42:08;;;;;;;8.70;4.55;;;18.50;92.20;;;18.85;56.96;99780.19;5073014;27;20076;-77
2022/10/20 04:44:34;;;;;;;6.82;4.25;;;18.50;92.00;;;18.83;56.93;99771.44;5062463;28;20127;-77
2022/10/20 04:47:00;;;;;;;7.82;4.93;;;18.50;91.90;;;18.85;56.88;99774.69;5070898;28;20067;-77
2022/10/20 04:49:26;;;;;;;7.38;4.57;;;18.50;91.90;;;18.83;56.68;99766.75;5066753;28;20411;-77
2022/10/20 04:51:52;;;;;;;8.20;4.50;;;18.50;91.90;;;18.91;57.00;99770.72;5055675;28;20138;-77
2022/10/20 04:54:18;;;;;;;7.50;5.07;;;18.60;92.10;;;18.87;56.94;99773.25;5084587;28;20520;-78
2022/10/20 04:56:45;;;;;;;7.72;4.30;;;18.60;92.10;;;18.91;57.10;99775.41;5048101;28;20101;-78
2022/10/20 04:59:10;;;;;;;6.93;4.47;;;18.60;92.20;;;18.87;56.81;99776.00;5086191;28;20048;-78
2022/10/20 05:01:37;;;;;;;5.95;3.72;;;18.60;91.90;;;18.86;56.69;99771.63;5089089;28;20512;-78
2022/10/20 05:04:03;;;;;;;9.38;4.10;;;18.60;91.90;;;18.93;55.91;99775.91;5048069;28;20052;-78
2022/10/20 05:06:30;;;;;;;11.93;4.82;;;18.50;91.90;;;18.91;55.93;99778.16;5051028;28;20092;-77
2022/10/20 05:08:58;;;;;;;8.52;4.65;;;18.60;91.90;;;18.95;56.59;99774.47;5040021;28;20441;-78
2022/10/20 05:11:26;;;;;;;11.05;4.85;;;18.60;91.90;;;18.96;56.80;99780.81;5080891;28;20042;-78
2022/10/20 05:13:52;;;;;;;6.90;4.05;;;18.60;92.00;;;18.98;56.64;99773.06;5078082;28;20138;-77
2022/10/20 05:16:18;;;;;;;7.63;4.78;;;18.60;92.00;;;18.91;56.85;99770.72;5071728;28;20048;-78
2022/10/20 05:18:44;;;;;;;7.03;4.45;;;18.60;91.90;;;18.94;56.40;99783.06;5059173;28;20499;-78
2022/10/20 05:21:16;;;;;;;7.45;3.72;;;18.60;91.90;;;18.95;56.06;99787.41;5048767;28;20157;-78
2022/10/20 05:23:43;;;;;;;6.25;4.47;;;18.60;91.70;;;18.94;56.28;99788.56;5071667;28;20066;-78
2022/10/20 05:26:12;;;;;;;8.73;4.35;;;18.60;91.90;;;18.97;56.47;99790.69;5075716;28;20044;-78
2022/10/20 05:28:39;;;;;;;5.72;4.53;;;18.60;91.90;;;18.98;56.79;99795.06;5065939;28;20044;-78
2022/10/20 05:31:06;;;;;;;6.53;3.47;;;18.60;92.00;;;18.96;56.47;99797.31;5064071;28;20688;-78
2022/10/20 05:33:32;;;;;;;10.13;4.78;;;18.60;91.90;;;18.96;55.89;99786.31;5062684;28;20127;-78
2022/10/20 05:35:59;;;;;;;8.52;4.40;;;18.60;91.80;;;18.83;54.54;99791.50;5064468;28;20043;-78
2022/10/20 05:38:25;;;;;;;7.40;3.80;;;18.60;91.00;;;18.89;52.94;99802.41;5063196;28;20127;-78
2022/10/20 05:40:51;;;;;;;8.55;4.00;;;18.60;90.40;;;18.92;52.30;99802.59;5092328;28;20040;-79
2022/10/20 05:43:17;;;;;;;4.82;3.33;;;18.50;90.30;;;18.92;51.90;99804.53;5063805;28;20545;-79
2022/10/20 05:45:43;;;;;;;6.20;3.33;;;18.60;90.20;;;18.82;51.74;99792.59;5067759;27;20517;-79
2022/10/20 05:48:09;;;;;;;5.85;3.35;;;18.50;89.70;;;18.81;51.01;99801.16;5035779;28;20043;-79
2022/10/20 05:50:36;;;;;;;8.38;2.85;;;18.50;88.90;;;18.75;50.42;99800.47;5068672;28;20037;-79
2022/10/20 05:53:02;;;;;;;4.20;3.08;;;18.40;88.40;;;18.79;50.17;99809.72;5052219;27;20047;-79
2022/10/20 05:55:28;;;;;;;4.95;3.13;;;18.40;88.40;;;18.75;49.84;99808.69;5083951;28;20055;-79
2022/10/20 05:57:54;;;;;;;3.83;2.97;;;18.40;88.20;;;18.77;49.47;99811.13;5055962;28;20042;-78
2022/10/20 06:00:28;;;;;;;4.13;3.30;;;18.40;87.80;;;18.72;49.40;99814.75;5050039;28;20127;-78
2022/10/20 06:02:54;;;;;;;6.28;3.38;;;18.40;87.60;;;18.75;49.79;99819.69;5073766;27;20062;-79
2022/10/20 06:05:20;;;;;;;5.70;3.03;;;18.40;88.20;;;18.80;49.22;99819.59;5056992;28;20118;-79
2022/10/20 06:07:46;;;;;;;6.13;2.70;;;18.30;87.70;;;18.79;49.00;99811.66;5036511;28;20040;-79
2022/10/20 06:10:13;;;;;;;3.55;2.95;;;18.40;87.30;;;18.70;49.16;99822.50;5081992;28;20051;-79
2022/10/20 06:12:39;;;;;;;4.53;3.25;;;18.30;87.30;;;18.69;49.29;99826.34;5049071;28;20036;-79
2022/10/20 06:15:06;;;;;;;5.05;2.58;;;18.30;87.50;;;18.75;48.48;99825.19;5068496;28;20409;-79
2022/10/20 06:17:32;;;;;;;4.25;2.85;;;18.30;86.70;;;18.63;48.55;99833.06;5041130;28;20450;-80
2022/10/20 06:19:58;;;;;;;6.28;3.30;;;18.30;86.50;;;18.71;48.37;99831.56;5066717;28;20074;-79
2022/10/20 06:22:24;;;;;;;3.28;2.80;;;18.30;86.20;;;18.68;48.33;99823.94;5062303;28;20044;-79
2022/10/20 06:24:50;;;;;;;4.50;2.85;;;18.40;86.10;;;18.67;48.19;99834.09;5083092;28;20447;-79
2022/10/20 06:27:16;;;;;;;4.40;3.10;;;18.30;86.00;;;18.65;47.63;99830.84;5077734;28;20050;-79
2022/10/20 06:29:42;;;;;;;5.88;2.95;;;18.30;85.50;;;18.63;47.76;99828.38;5067064;28;20040;-79
2022/10/20 06:32:08;;;;;;;3.17;2.83;;;18.30;85.50;;;18.58;47.52;99833.16;5102069;27;20051;-79
2022/10/20 06:34:34;;;;;;;3.20;2.67;;;18.30;85.20;;;18.55;47.48;99831.03;5059299;28;20040;-79
2022/10/20 06:37:00;;;;;;;3.72;2.80;;;18.20;85.20;;;18.59;47.39;99824.59;5057189;27;20191;-79
2022/10/20 06:39:27;;;;;;;3.45;2.53;;;18.20;85.00;;;18.59;47.11;99838.34;5060910;28;20040;-79
2022/10/20 06:42:00;;;;;;;3.13;2.50;;;18.30;85.40;;;18.59;46.87;99815.53;5060455;27;20035;-79
2022/10/20 06:44:26;;;;;;;3.22;2.92;;;18.30;84.50;;;18.59;46.91;99821.03;5054566;28;20054;-79
2022/10/20 06:46:53;;;;;;;3.25;2.60;;;18.30;84.60;;;18.57;46.99;99831.50;5063884;28;20419;-79
2022/10/20 06:49:20;;;;;;;2.53;2.15;;;18.30;84.50;;;18.57;46.61;99831.50;5048917;28;20044;-79
2022/10/20 06:51:46;;;;;;;3.72;2.92;;;18.30;83.90;;;18.58;46.63;99824.91;5064142;28;20036;-79
2022/10/20 06:54:12;;;;;;;5.05;3.33;;;18.30;83.90;;;18.62;46.78;99832.25;5045301;28;20044;-79
2022/10/20 06:56:38;;;;;;;3.65;2.38;;;18.30;84.50;;;18.72;46.90;99830.44;5064994;28;20050;-79
2022/10/20 06:59:05;;;;;;;3.20;2.53;;;18.30;84.60;;;18.77;46.99;99831.19;5070626;28;20070;-79
2022/10/20 07:01:33;;;;;;;5.07;3.35;;;18.40;85.70;;;18.76;47.31;99831.50;5062628;28;20044;-79
2022/10/20 07:04:03;;;;;;;4.10;2.75;;;18.40;85.20;;;18.79;47.51;99825.38;5064529;28;20043;-79
2022/10/20 07:06:40;;;;;;;2.92;2.33;;;18.40;85.30;;;18.83;47.47;99829.97;5050249;28;20040;-79
2022/10/20 07:09:11;;;;;;;3.03;2.53;;;18.50;85.60;;;18.89;47.72;99829.88;5068099;28;20115;-79
2022/10/20 07:11:37;;;;;;;2.75;2.50;;;18.50;85.90;;;18.90;47.87;99832.31;5049664;28;20043;-79
2022/10/20 07:14:03;;;;;;;4.38;2.63;;;18.50;86.20;;;18.92;47.99;99821.84;5066404;28;20486;-79
2022/10/20 07:16:32;;;;;;;4.75;2.88;;;18.60;86.40;;;18.93;48.25;99830.88;5049749;28;20402;-79
2022/10/20 07:19:01;;;;;;;2.80;2.38;;;18.50;86.40;;;18.92;48.47;99821.84;5068487;28;20032;-78
2022/10/20 07:21:27;;;;;;;3.53;2.75;;;18.50;86.70;;;18.89;48.39;99821.63;5078547;28;20063;-78
2022/10/20 07:23:56;;;;;;;2.50;2.25;;;18.60;86.60;;;18.92;48.45;99821.84;5066782;28;20550;-79
2022/10/20 07:26:25;;;;;;;4.20;2.65;;;18.60;86.90;;;18.97;48.70;99826.44;5054521;28;20035;-78
2022/10/20 07:28:53;;;;;;;3.42;2.58;;;18.60;87.10;;;18.98;48.83;99817.03;5065489;28;20044;-79
2022/10/20 07:31:32;;;;;;;3.33;2.58;;;18.60;87.40;;;18.97;48.85;99821.72;5069960;28;20058;-79
2022/10/20 07:33:59;;;;;;;3.13;2.50;;;18.60;87.20;;;18.96;48.99;99822.06;5068458;27;20036;-80
2022/10/20 07:36:27;;;;;;;3.67;2.90;;;18.60;87.40;;;18.96;49.13;99824.81;5063459;27;20082;-79
2022/10/20 07:38:56;;;;;;;5.00;2.97;;;18.60;87.40;;;18.98;49.10;99828.88;5061003;27;20124;-77
2022/10/20 07:41:23;;;;;;;3.20;2.90;;;18.60;87.50;;;19.00;49.16;99820.31;5061178;28;20533;-76
2022/10/20 07:43:49;;;;;;;2.65;2.30;;;18.60;87.80;;;19.01;49.29;99827.47;5049933;27;20480;-76
2022/10/20 07:46:15;;;;;;;3.35;2.67;;;18.70;88.00;;;19.00;49.48;99821.13;5078269;27;20047;-76
2022/10/20 07:48:41;;;;;;;4.63;2.80;;;18.70;88.70;;;19.02;49.44;99818.88;5065117;28;20586;-77
2022/10/20 07:51:29;;;;;;;3.30;3.00;;;18.70;87.90;;;19.02;49.37;99821.63;5048001;27;20040;-77
2022/10/20 07:54:06;;;;;;;2.92;2.20;;;18.70;87.90;;;19.07;49.27;99820.72;5101097;27;20034;-77
2022/10/20 07:56:38;;;;;;;6.22;2.75;;;18.70;87.90;;;19.07;49.77;99816.03;5064216;28;20560;-77
2022/10/20 07:59:05;;;;;;;3.22;2.33;;;18.70;88.10;;;19.07;49.71;99812.47;5081685;28;20429;-77
2022/10/20 08:01:31;;;;;;;2.75;2.33;;;18.70;88.20;;;19.12;49.72;99808.81;5064191;28;20457;-77
2022/10/20 08:03:57;;;;;;;2.65;2.03;;;18.80;88.30;;;19.12;49.55;99823.38;5063890;28;20221;-77
2022/10/20 08:06:24;;;;;;;4.25;2.60;;;18.80;88.10;;;19.13;49.91;99819.50;5077903;28;20400;-77
2022/10/20 08:08:51;;;;;;;4.22;2.50;;;18.80;88.20;;;19.15;49.33;99817.25;5069262;28;20406;-77
2022/10/20 08:11:17;;;;;;;3.05;2.70;;;18.80;88.10;;;19.18;49.33;99826.84;5079887;28;20092;-77
2022/10/20 08:13:43;;;;;;;3.15;2.35;;;18.90;88.20;;;19.21;49.72;99823.47;5060396;28;20050;-77
2022/10/20 08:16:10;;;;;;;3.10;2.50;;;18.90;88.30;;;19.18;49.63;99827.63;5077658;28;20048;-77
2022/10/20 08:18:38;;;;;;;2.95;2.60;;;18.90;88.40;;;19.20;49.61;99825.41;5067798;28;20044;-77
2022/10/20 08:21:18;;;;;;;3.10;2.65;;;18.90;88.40;;;19.22;49.84;99830.63;5074877;28;20044;-77
2022/10/20 08:23:46;;;;;;;4.00;2.40;;;18.90;88.50;;;19.21;49.92;99828.97;5078137;28;20062;-77
2022/10/20 08:26:15;;;;;;;2.70;2.17;;;18.90;88.40;;;19.23;49.62;99835.81;5049491;28;20098;-77
2022/10/20 08:28:41;;;;;;;7.43;2.83;;;19.00;88.30;;;19.24;49.61;99837.44;5049784;28;20435;-77
2022/10/20 08:31:07;;;;;;;3.58;2.35;;;19.00;88.30;;;19.22;49.70;99834.16;5046160;28;20048;-77
2022/10/20 08:33:33;;;;;;;3.33;2.20;;;19.00;88.40;;;19.24;49.95;99831.13;5063510;28;20044;-77
2022/10/20 08:36:04;;;;;;;2.67;2.40;;;19.00;88.50;;;19.25;49.88;99832.75;5067796;28;20055;-77
2022/10/20 08:38:31;;;;;;;3.55;1.95;;;19.00;88.40;;;19.22;49.85;99823.16;5065977;28;20455;-77
2022/10/20 08:41:00;;;;;;;4.93;2.33;;;19.00;88.40;;;19.28;49.73;99827.47;5023703;28;20035;-77
2022/10/20 08:43:26;;;;;;;4.60;3.75;;;19.00;88.40;;;19.31;49.66;99820.53;5080686;28;20044;-77
2022/10/20 08:45:52;;;;;;;2.47;1.83;;;19.10;88.30;;;19.33;49.71;99823.78;5049455;28;20055;-78
2022/10/20 08:48:25;;;;;;;5.50;2.78;;;19.10;88.40;;;19.34;49.97;99813.59;5078269;28;20046;-78
2022/10/20 08:50:51;;;;;;;3.15;2.60;;;19.10;88.70;;;19.34;49.90;99824.59;5063735;28;20040;-78
2022/10/20 08:53:20;;;;;;;5.60;2.63;;;19.10;88.50;;;19.38;49.75;99825.59;5067214;28;20657;-78
2022/10/20 08:55:46;;;;;;;4.68;2.85;;;19.10;88.40;;;19.37;49.65;99821.22;5048661;28;20044;-78
2022/10/20 08:58:15;;;;;;;2.80;2.55;;;19.10;88.20;;;19.31;50.00;99812.28;5047953;28;20529;-78
2022/10/20 09:00:42;;;;;;;2.78;2.30;;;19.10;88.30;;;19.36;49.95;99816.84;5079144;28;20419;-77
2022/10/20 09:03:30;;;;;;;3.00;2.70;;;19.10;88.50;;;19.38;49.99;99814.59;5045461;28;20048;-79
2022/10/20 09:06:13;;;;;;;3.42;2.28;;;19.20;88.70;;;19.37;50.12;99810.22;5064429;28;20047;-79
2022/10/20 09:08:39;;;;;;;3.33;2.63;;;19.20;88.70;;;19.40;50.24;99801.34;5048381;28;20462;-79
2022/10/20 09:11:07;;;;;;;2.35;2.00;;;19.20;88.50;;;19.41;49.87;99794.72;5034811;28;20064;-79
2022/10/20 09:13:35;;;;;;;4.30;2.33;;;19.20;88.40;;;19.41;49.92;99794.72;5058916;28;20104;-79
2022/10/20 09:16:09;;;;;;;3.40;2.33;;;19.20;88.40;;;19.43;49.70;99800.72;5060720;28;20039;-80
2022/10/20 09:18:36;;;;;;;4.18;2.60;;;19.20;88.40;;;19.42;49.98;99794.44;5063421;28;20720;-80
2022/10/20 09:21:14;;;;;;;5.40;2.10;;;19.20;88.50;;;19.47;50.07;99793.50;5064612;28;20113;-80
2022/10/20 09:23:43;;;;;;;3.22;2.50;;;19.30;88.70;;;19.44;49.82;99788.63;5067165;27;20043;-80
2022/10/20 09:26:40;;;;;;;4.95;2.60;;;19.30;88.50;;;19.43;50.29;99790.53;5036842;28;20044;-80
2022/10/20 09:29:18;;;;;;;4.22;2.35;;;19.30;88.40;;;19.45;49.84;99787.50;5083093;28;20059;-80
2022/10/20 09:31:52;;;;;;;2.50;1.95;;;19.30;88.40;;;19.45;49.97;99790.25;5082752;28;20043;-80
2022/10/20 09:34:22;;;;;;;2.65;2.20;;;19.30;88.30;;;19.48;50.12;99789.63;5071893;28;20032;-79
2022/10/20 09:36:51;;;;;;;2.97;2.65;;;19.30;88.40;;;19.48;50.06;99790.44;5082846;28;20097;-80
2022/10/20 09:39:24;;;;;;;3.15;2.38;;;19.30;88.60;;;19.48;49.91;99786.88;5066410;27;20047;-80
2022/10/20 09:42:05;;;;;;;6.15;3.15;;;19.30;88.60;;;19.49;49.86;99783.00;5065505;27;20540;-80
2022/10/20 09:44:34;;;;;;;3.40;2.42;;;19.30;88.40;;;19.50;49.91;99787.38;5056098;28;20100;-80
2022/10/20 09:47:00;;;;;;;2.72;2.35;;;19.40;88.10;;;19.51;49.45;99787.09;5047746;28;20054;-80
2022/10/20 09:49:30;;;;;;;3.13;2.08;;;19.40;88.10;;;19.52;50.14;99782.38;5050716;27;20126;-80
2022/10/20 09:51:58;;;;;;;2.65;2.25;;;19.40;88.30;;;19.51;50.14;99778.00;5083897;27;20676;-80
2022/10/20 09:54:24;;;;;;;3.05;2.10;;;19.40;88.60;;;19.51;50.31;99769.72;5071744;28;20042;-80
2022/10/20 09:56:51;;;;;;;3.72;2.33;;;19.40;88.80;;;19.54;49.87;99785.66;5065785;27;20081;-80
2022/10/20 09:59:36;;;;;;;2.38;2.17;;;19.40;88.30;;;19.53;50.09;99778.50;5068767;27;20399;-79
2022/10/20 10:02:13;;;;;;;3.40;1.95;;;19.40;88.30;;;19.54;49.72;99763.63;5075266;28;20375;-80
2022/10/20 10:04:44;;;;;;;1.92;1.80;;;19.40;88.10;;;19.55;49.85;99768.00;5084540;28;20137;-80
2022/10/20 10:07:30;;;;;;;3.07;1.93;;;19.40;88.20;;;19.56;50.03;99775.13;5075219;28;20067;-80
2022/10/20 10:10:25;;;;;;;5.00;1.67;;;19.40;88.60;;;19.55;50.17;99769.94;5051521;27;20154;-80
2022/10/20 10:12:53;;;;;;;3.30;1.73;;;19.50;88.90;;;19.56;50.10;99761.38;5062302;28;20032;-80
2022/10/20 10:15:22;;;;;;;2.83;2.50;;;19.50;88.50;;;19.55;49.94;99761.69;5084065;28;20052;-80
2022/10/20 10:17:48;;;;;;;3.10;2.30;;;19.50;88.20;;;19.57;50.02;99768.50;5102285;27;20086;-79
2022/10/20 10:20:15;;;;;;;2.90;2.35;;;19.50;88.30;;;19.61;49.87;99764.00;5070945;28;20031;-80
2022/10/20 10:22:41;;;;;;;2.65;2.25;;;19.50;88.20;;;19.62;49.99;99762.88;5102969;27;20035;-80
2022/10/20 10:25:18;;;;;;;3.72;2.22;;;19.50;88.60;;;19.62;50.11;99760.13;5059045;28;20070;-79
2022/10/20 10:28:34;;;;;;;4.18;2.17;;;19.50;88.70;;;19.60;49.97;99756.88;5058490;27;20468;-79
2022/10/20 10:31:19;;;;;;;2.20;2.00;;;19.50;88.40;;;19.61;50.19;99758.50;5034792;28;20399;-80